Observations for BIRMINGHAM AIRPORT, United Kingdom (EGBB)

EGBB 180520Z 26007KT 9999 FEW018 BKN031 15/13 Q1016 
EGBB 180450Z 24007KT 210V280 9999 FEW016 BKN026 15/13 Q1016 
EGBB 180420Z 23006KT 200V260 9999 BKN017 OVC023 14/13 Q1015 
EGBB 180350Z 23005KT 190V290 9999 OVC015 14/13 Q1015
EGBB 180320Z 24005KT 190V280 9999 OVC012 14/12 Q1015
EGBB 180250Z 26007KT 9999 BKN018 14/12 Q1015
EGBB 180220Z 24008KT 210V280 9999 FEW019 14/12 Q1015
EGBB 180150Z 24007KT 210V280 9999 SCT022 15/13 Q1015
EGBB 180120Z 24007KT 210V270 9999 BKN025 15/13 Q1015
EGBB 180050Z 23007KT 200V260 9999 BKN027 16/13 Q1015
EGBB 180020Z 24006KT 200V280 9999 BKN028 16/13 Q1015
EGBB 172350Z 24007KT 190V270 9999 BKN025 16/13 Q1015
EGBB 172320Z 21005KT 170V250 9999 FEW018 BKN026 16/14 Q1014 
EGBB 172250Z 21006KT 170V250 9999 BKN030 16/13 Q1015
EGBB 172220Z 23006KT 190V260 9999 OVC027 17/13 Q1014
EGBB 172150Z 23006KT 9999 FEW015 BKN029 17/14 Q1014 
EGBB 172120Z 22007KT 9999 FEW013 BKN032 17/15 Q1014 
EGBB 172050Z 21005KT 180V250 9999 SCT012 BKN026 16/15 Q1014 
EGBB 172020Z 24006KT 200V280 9999 BKN010CB 16/15 Q1014  
EGBB 171950Z 20007KT 150V250 9999 BKN012 17/15 Q1014
EGBB 171920Z 20007KT 160V230 9999 -SHRA BKN012 17/15 Q1014  
EGBB 171850Z 19007KT 150V230 9999 BKN012 17/15 Q1014
EGBB 171820Z 19008KT 160V220 9999 BKN014 17/14 Q1013
EGBB 171750Z 19007KT 160V220 9999 BKN014 17/14 Q1013
EGBB 171720Z 18008KT 9999 BKN018 16/14 Q1013
EGBB 171650Z 18008KT 9999 BKN018 16/13 Q1013
EGBB 171620Z 20009KT 160V240 9999 BKN018 16/13 Q1013
EGBB 171550Z 19009KT 160V230 9999 BKN019 16/13 Q1014
EGBB 171520Z 20008KT 160V240 9999 BKN020 16/12 Q1014
EGBB 171450Z 18009KT 9999 BKN021 16/12 Q1014
EGBB 171420Z 20010KT 170V230 9999 BKN021 16/12 Q1014
EGBB 171350Z 20010KT 170V230 9999 BKN024 17/11 Q1014
EGBB 171320Z 21008KT 170V250 9999 BKN023 16/11 Q1014
EGBB 171250Z 19008KT 160V220 9999 BKN019 15/12 Q1014
EGBB 171220Z 19007KT 150V240 9999 BKN019 15/11 Q1015
EGBB 171150Z 21009KT 170V240 9000 -RA BKN022 15/10 Q1015
EGBB 171120Z 22007KT 170V260 9999 BKN026 16/10 Q1015
EGBB 171050Z 22009KT 190V260 9999 BKN026 15/09 Q1015
EGBB 171020Z 22008KT 180V260 9999 BKN031 16/09 Q1014
EGBB 170950Z 24009KT 190V280 9999 SCT033 SCT044 16/09 Q1014 
EGBB 170920Z 23009KT 9999 SCT026 SCT044 15/10 Q1014 
EGBB 170850Z 24008G18KT 200V290 9999 SCT021 15/10 Q1015 
EGBB 170820Z 23008KT 190V290 9999 FEW021 15/10 Q1015
EGBB 170750Z 23007KT 200V270 9999 FEW019 15/10 Q1015
EGBB 170720Z 24008KT 210V280 9999 FEW039 14/10 Q1014
EGBB 170650Z 24008KT 200V280 9999 FEW012 13/10 Q1014
EGBB 170620Z 25007KT 190V270 9999 FEW012 13/10 Q1014
EGBB 170550Z 25009KT 210V270 9999 FEW012 13/10 Q1014
EGBB 170520Z 25007KT 210V280 CAVOK 13/10 Q1013  
EGBB 170450Z 25005KT CAVOK 13/10 Q1013